SWR52 LSZH-KBOS
Flight info
| Callsign | SWR52 |
|---|---|
| Flight time | N/A |
| Altitude | 34000 |
| Route | VEBIT T10 TORPA DCT REKLA DCT RLP DCT ROTSI/N0476F360 DCT AMODO DCT COHPA UM729 RESMI DCT TABOV DCT PIGOP DCT DITAL UN491 LGL UN502 ARGED DCT SENLO DCT JSY DCT LIZAD DCT LESLU DCT AMDEP DCT TOBOR/M083F360 DCT 5230N02000W 5130N03000W 5030N04000W 4930N05000W DCT IBERG/N0473F360 N364A TUSKY DCT OOSHN OOSHN5 |
| Aircraft | A333/H-SDE3GHIJ2J3J5M1RVWXY/LB2D1 |
Departure
| Time | N/A |
|---|---|
| Airport | Zürich Airport (LSZH) |
Arrival
| Time | 2026-05-07 02:54 |
|---|---|
| Airport | Boston Logan International Airport (KBOS) |
| Time | Latitude | Longitude | Altitude | Speed | Heading |
|---|---|---|---|---|---|
| 2026-05-07 02:19 | 43.29869 | -67.93486 | 35841 ft | 393 kts | 250° |
| 2026-05-07 02:20 | 43.27832 | -68.00500 | 35829 ft | 392 kts | 251° |
| 2026-05-07 02:20 | 43.25792 | -68.07505 | 35808 ft | 392 kts | 250° |
| 2026-05-07 02:21 | 43.24770 | -68.11000 | 36093 ft | 392 kts | 250° |
| 2026-05-07 02:21 | 43.23740 | -68.14516 | 35742 ft | 394 kts | 251° |
| 2026-05-07 02:21 | 43.22730 | -68.17966 | 35877 ft | 384 kts | 250° |
| 2026-05-07 02:21 | 43.21725 | -68.21393 | 35824 ft | 389 kts | 251° |
| 2026-05-07 02:22 | 43.19698 | -68.28297 | 35839 ft | 388 kts | 251° |
| 2026-05-07 02:22 | 43.17658 | -68.35213 | 35825 ft | 388 kts | 251° |
| 2026-05-07 02:23 | 43.15624 | -68.42107 | 35822 ft | 388 kts | 251° |
| 2026-05-07 02:23 | 43.13578 | -68.49008 | 35817 ft | 389 kts | 251° |
| 2026-05-07 02:24 | 43.11537 | -68.55883 | 35806 ft | 386 kts | 251° |
| 2026-05-07 02:24 | 43.09499 | -68.62722 | 35804 ft | 386 kts | 251° |
| 2026-05-07 02:25 | 43.07453 | -68.69570 | 35825 ft | 387 kts | 251° |
| 2026-05-07 02:25 | 43.05406 | -68.76404 | 35812 ft | 385 kts | 251° |
| 2026-05-07 02:26 | 43.03367 | -68.83204 | 35808 ft | 384 kts | 251° |
| 2026-05-07 02:26 | 43.02346 | -68.86593 | 35310 ft | 386 kts | 251° |
| 2026-05-07 02:26 | 43.01318 | -68.90005 | 34453 ft | 386 kts | 251° |
| 2026-05-07 02:27 | 43.00300 | -68.93389 | 33747 ft | 382 kts | 252° |
| 2026-05-07 02:27 | 42.99281 | -68.96758 | 32829 ft | 385 kts | 251° |
| 2026-05-07 02:27 | 42.98256 | -69.00150 | 31895 ft | 387 kts | 251° |
| 2026-05-07 02:27 | 42.97224 | -69.03559 | 30749 ft | 394 kts | 251° |
| 2026-05-07 02:28 | 42.96173 | -69.07026 | 29868 ft | 391 kts | 251° |
| 2026-05-07 02:28 | 42.95143 | -69.10411 | 29501 ft | 382 kts | 251° |
| 2026-05-07 02:28 | 42.94119 | -69.13788 | 28755 ft | 382 kts | 251° |
| 2026-05-07 02:28 | 42.93104 | -69.17128 | 28213 ft | 378 kts | 251° |
| 2026-05-07 02:29 | 42.92092 | -69.20447 | 27557 ft | 376 kts | 250° |
| 2026-05-07 02:29 | 42.91088 | -69.23744 | 26967 ft | 373 kts | 250° |
| 2026-05-07 02:29 | 42.90087 | -69.27012 | 26380 ft | 369 kts | 250° |
| 2026-05-07 02:29 | 42.89103 | -69.30234 | 25945 ft | 363 kts | 249° |
| 2026-05-07 02:30 | 42.88131 | -69.33405 | 25440 ft | 358 kts | 249° |
| 2026-05-07 02:30 | 42.87173 | -69.36530 | 25008 ft | 352 kts | 249° |
| 2026-05-07 02:30 | 42.86229 | -69.39607 | 24573 ft | 347 kts | 248° |
| 2026-05-07 02:30 | 42.85293 | -69.42647 | 24093 ft | 344 kts | 248° |
| 2026-05-07 02:31 | 42.84370 | -69.45650 | 23604 ft | 340 kts | 248° |
| 2026-05-07 02:31 | 42.83455 | -69.48624 | 23119 ft | 337 kts | 248° |
| 2026-05-07 02:31 | 42.82541 | -69.51583 | 22611 ft | 335 kts | 248° |
| 2026-05-07 02:31 | 42.81636 | -69.54507 | 22117 ft | 331 kts | 248° |
| 2026-05-07 02:32 | 42.80740 | -69.57410 | 21640 ft | 327 kts | 248° |
| 2026-05-07 02:32 | 42.79856 | -69.60269 | 21176 ft | 324 kts | 248° |
| 2026-05-07 02:32 | 42.78980 | -69.63091 | 20712 ft | 320 kts | 248° |
| 2026-05-07 02:32 | 42.78114 | -69.65890 | 20255 ft | 316 kts | 247° |
| 2026-05-07 02:33 | 42.77258 | -69.68645 | 19834 ft | 312 kts | 247° |
| 2026-05-07 02:33 | 42.76409 | -69.71383 | 19408 ft | 311 kts | 246° |
| 2026-05-07 02:33 | 42.75560 | -69.74101 | 18980 ft | 309 kts | 247° |
| 2026-05-07 02:33 | 42.74722 | -69.76799 | 18546 ft | 308 kts | 246° |
| 2026-05-07 02:34 | 42.73885 | -69.79491 | 18124 ft | 306 kts | 246° |
| 2026-05-07 02:34 | 42.73048 | -69.82163 | 17697 ft | 304 kts | 246° |
| 2026-05-07 02:34 | 42.72218 | -69.84824 | 17273 ft | 304 kts | 246° |
| 2026-05-07 02:34 | 42.71389 | -69.87471 | 16809 ft | 302 kts | 246° |
| 2026-05-07 02:35 | 42.70568 | -69.90088 | 16408 ft | 298 kts | 247° |
| 2026-05-07 02:35 | 42.69753 | -69.92694 | 15970 ft | 298 kts | 246° |
| 2026-05-07 02:35 | 42.68936 | -69.95294 | 15537 ft | 296 kts | 248° |
| 2026-05-07 02:35 | 42.68129 | -69.97875 | 15093 ft | 294 kts | 247° |
| 2026-05-07 02:36 | 42.67322 | -70.00435 | 14650 ft | 292 kts | 248° |
| 2026-05-07 02:36 | 42.66523 | -70.02977 | 14190 ft | 290 kts | 248° |
| 2026-05-07 02:36 | 42.65729 | -70.05498 | 13744 ft | 288 kts | 248° |
| 2026-05-07 02:36 | 42.64938 | -70.08010 | 13296 ft | 286 kts | 247° |
| 2026-05-07 02:37 | 42.64151 | -70.10509 | 12839 ft | 287 kts | 248° |
| 2026-05-07 02:37 | 42.63360 | -70.13016 | 12401 ft | 284 kts | 248° |
| 2026-05-07 02:37 | 42.62580 | -70.15481 | 12309 ft | 281 kts | 248° |
| 2026-05-07 02:37 | 42.61812 | -70.17906 | 12221 ft | 272 kts | 248° |
| 2026-05-07 02:38 | 42.61076 | -70.20239 | 12106 ft | 260 kts | 247° |
| 2026-05-07 02:38 | 42.60370 | -70.22467 | 11999 ft | 249 kts | 249° |
| 2026-05-07 02:38 | 42.60063 | -70.24743 | 11788 ft | 245 kts | 265° |
| 2026-05-07 02:38 | 42.59975 | -70.27052 | 11419 ft | 245 kts | 264° |
| 2026-05-07 02:39 | 42.59826 | -70.29354 | 11075 ft | 243 kts | 263° |
| 2026-05-07 02:39 | 42.59635 | -70.31633 | 10781 ft | 240 kts | 262° |
| 2026-05-07 02:39 | 42.59408 | -70.33879 | 10493 ft | 239 kts | 261° |
| 2026-05-07 02:39 | 42.59143 | -70.36105 | 10232 ft | 238 kts | 259° |
| 2026-05-07 02:40 | 42.58841 | -70.38305 | 9968 ft | 234 kts | 259° |
| 2026-05-07 02:40 | 42.58509 | -70.40436 | 9879 ft | 225 kts | 257° |
| 2026-05-07 02:40 | 42.58145 | -70.42510 | 9691 ft | 227 kts | 256° |
| 2026-05-07 02:40 | 42.57787 | -70.44599 | 9458 ft | 226 kts | 264° |
| 2026-05-07 02:41 | 42.57957 | -70.46746 | 9089 ft | 234 kts | 281° |
| 2026-05-07 02:41 | 42.58521 | -70.48833 | 8740 ft | 236 kts | 289° |
| 2026-05-07 02:41 | 42.59212 | -70.50824 | 8397 ft | 230 kts | 292° |
| 2026-05-07 02:41 | 42.59929 | -70.52721 | 8104 ft | 222 kts | 292° |
| 2026-05-07 02:42 | 42.60639 | -70.54553 | 7842 ft | 216 kts | 293° |
| 2026-05-07 02:42 | 42.61346 | -70.56366 | 7611 ft | 217 kts | 293° |
| 2026-05-07 02:42 | 42.62057 | -70.58166 | 7381 ft | 214 kts | 293° |
| 2026-05-07 02:42 | 42.62763 | -70.59967 | 7167 ft | 216 kts | 294° |
| 2026-05-07 02:43 | 42.63475 | -70.61778 | 6950 ft | 216 kts | 294° |
| 2026-05-07 02:43 | 42.64183 | -70.63577 | 6733 ft | 217 kts | 293° |
| 2026-05-07 02:43 | 42.64911 | -70.65434 | 6555 ft | 225 kts | 293° |
| 2026-05-07 02:43 | 42.65651 | -70.67319 | 6334 ft | 224 kts | 293° |
| 2026-05-07 02:44 | 42.66391 | -70.69202 | 6144 ft | 225 kts | 293° |
| 2026-05-07 02:44 | 42.67123 | -70.71062 | 6086 ft | 223 kts | 293° |
| 2026-05-07 02:44 | 42.67852 | -70.72927 | 6005 ft | 223 kts | 294° |
| 2026-05-07 02:44 | 42.68574 | -70.74785 | 5922 ft | 220 kts | 290° |
| 2026-05-07 02:45 | 42.68849 | -70.76765 | 5732 ft | 211 kts | 261° |
| 2026-05-07 02:45 | 42.68298 | -70.78608 | 5555 ft | 212 kts | 238° |
| 2026-05-07 02:45 | 42.67376 | -70.80104 | 5404 ft | 200 kts | 229° |
| 2026-05-07 02:45 | 42.66383 | -70.81364 | 5323 ft | 195 kts | 226° |
| 2026-05-07 02:46 | 42.65354 | -70.82544 | 5227 ft | 193 kts | 224° |
| 2026-05-07 02:46 | 42.64317 | -70.83682 | 5035 ft | 193 kts | 223° |
| 2026-05-07 02:46 | 42.63267 | -70.84805 | 4831 ft | 191 kts | 223° |
| 2026-05-07 02:46 | 42.62214 | -70.85928 | 4614 ft | 192 kts | 223° |
| 2026-05-07 02:47 | 42.61160 | -70.87045 | 4361 ft | 191 kts | 223° |
| 2026-05-07 02:47 | 42.60169 | -70.88212 | 4075 ft | 187 kts | 227° |
| 2026-05-07 02:47 | 42.59217 | -70.89374 | 3855 ft | 179 kts | 220° |
| 2026-05-07 02:47 | 42.58085 | -70.90039 | 3782 ft | 178 kts | 208° |
| 2026-05-07 02:48 | 42.56913 | -70.90634 | 3550 ft | 178 kts | 208° |
| 2026-05-07 02:48 | 42.55778 | -70.91189 | 3480 ft | 170 kts | 208° |
| 2026-05-07 02:48 | 42.54700 | -70.91714 | 3433 ft | 162 kts | 209° |
| 2026-05-07 02:48 | 42.53641 | -70.92234 | 3206 ft | 160 kts | 209° |
| 2026-05-07 02:49 | 42.52591 | -70.92748 | 3008 ft | 161 kts | 208° |
| 2026-05-07 02:49 | 42.51552 | -70.93252 | 2956 ft | 159 kts | 208° |
| 2026-05-07 02:49 | 42.50509 | -70.93757 | 2743 ft | 158 kts | 207° |
| 2026-05-07 02:49 | 42.49524 | -70.94227 | 2559 ft | 141 kts | 208° |
| 2026-05-07 02:50 | 42.48626 | -70.94659 | 2327 ft | 134 kts | 208° |
| 2026-05-07 02:50 | 42.47768 | -70.95078 | 2159 ft | 137 kts | 209° |
| 2026-05-07 02:50 | 42.46900 | -70.95501 | 1991 ft | 131 kts | 209° |
| 2026-05-07 02:50 | 42.46062 | -70.95907 | 1816 ft | 127 kts | 209° |
| 2026-05-07 02:51 | 42.45224 | -70.96315 | 1664 ft | 129 kts | 208° |
| 2026-05-07 02:51 | 42.44374 | -70.96725 | 1502 ft | 129 kts | 208° |
| 2026-05-07 02:51 | 42.43519 | -70.97138 | 1319 ft | 131 kts | 207° |
| 2026-05-07 02:51 | 42.42653 | -70.97554 | 1142 ft | 133 kts | 206° |
| 2026-05-07 02:52 | 42.41784 | -70.97973 | 964 ft | 131 kts | 205° |
| 2026-05-07 02:52 | 42.40914 | -70.98391 | 792 ft | 133 kts | 205° |
| 2026-05-07 02:52 | 42.40031 | -70.98804 | 605 ft | 135 kts | 204° |
| 2026-05-07 02:52 | 42.39146 | -70.99219 | 405 ft | 135 kts | 201° |
| 2026-05-07 02:53 | 42.38261 | -70.99639 | 224 ft | 133 kts | 203° |
| 2026-05-07 02:53 | 42.37375 | -71.00074 | 48 ft | 138 kts | 202° |
| 2026-05-07 02:53 | 42.36540 | -71.00486 | 21 ft | 103 kts | 198° |
| 2026-05-07 02:53 | 42.36068 | -71.00719 | 23 ft | 52 kts | 207° |
| 2026-05-07 02:54 | 42.35901 | -71.00933 | 24 ft | 24 kts | 230° |
| 2026-05-07 02:54 | 42.35835 | -71.01119 | 25 ft | 20 kts | 269° |
| 2026-05-07 02:54 | 42.35848 | -71.01307 | 26 ft | 19 kts | 279° |
| 2026-05-07 02:54 | 42.35871 | -71.01479 | 26 ft | 17 kts | 293° |
| 2026-05-07 02:55 | 42.35971 | -71.01512 | 25 ft | 17 kts | 21° |
| 2026-05-07 02:55 | 42.36112 | -71.01439 | 25 ft | 24 kts | 18° |
| 2026-05-07 02:55 | 42.36276 | -71.01356 | 24 ft | 24 kts | 15° |
| 2026-05-07 02:55 | 42.36439 | -71.01286 | 23 ft | 24 kts | 20° |
| 2026-05-07 02:56 | 42.36598 | -71.01206 | 22 ft | 23 kts | 20° |
| 2026-05-07 02:56 | 42.36756 | -71.01146 | 22 ft | 22 kts | 355° |
| 2026-05-07 02:56 | 42.36882 | -71.01265 | 21 ft | 22 kts | 313° |
| 2026-05-07 02:56 | 42.36988 | -71.01412 | 21 ft | 21 kts | 315° |
| 2026-05-07 02:57 | 42.37093 | -71.01555 | 21 ft | 21 kts | 314° |
| 2026-05-07 02:57 | 42.37137 | -71.01719 | 21 ft | 18 kts | 272° |
| 2026-05-07 02:57 | 42.37184 | -71.01875 | 21 ft | 17 kts | 301° |
| 2026-05-07 02:57 | 42.37187 | -71.01964 | 22 ft | 7 kts | 232° |
| 2026-05-07 02:58 | 42.37154 | -71.01995 | 22 ft | 5 kts | 212° |
| 2026-05-07 02:58 | 42.37146 | -71.02001 | 22 ft | 0 kts | 212° |